sensor_id;sensor_type;location;lat;lon;timestamp;pressure;altitude;pressure_sealevel;temperature;humidity
43147;BME280;28752;48.266;7.402;2024-03-07T00:00:11;99913.09;;;11.03;75.73
43147;BME280;28752;48.266;7.402;2024-03-07T00:02:47;99915.59;;;11.05;75.65
43147;BME280;28752;48.266;7.402;2024-03-07T00:05:15;99909.47;;;11.14;75.34
43147;BME280;28752;48.266;7.402;2024-03-07T00:07:44;99912.53;;;11.09;75.57
43147;BME280;28752;48.266;7.402;2024-03-07T00:10:10;99915.75;;;11.13;75.13
43147;BME280;28752;48.266;7.402;2024-03-07T00:12:36;99908.94;;;11.20;74.73
43147;BME280;28752;48.266;7.402;2024-03-07T00:15:02;99910.31;;;11.14;74.88
43147;BME280;28752;48.266;7.402;2024-03-07T00:17:28;99920.38;;;11.20;74.58
43147;BME280;28752;48.266;7.402;2024-03-07T00:19:53;99915.06;;;11.01;74.99
43147;BME280;28752;48.266;7.402;2024-03-07T00:22:18;99911.13;;;11.05;75.07
43147;BME280;28752;48.266;7.402;2024-03-07T00:24:43;99912.13;;;11.04;75.36
43147;BME280;28752;48.266;7.402;2024-03-07T00:27:12;99910.25;;;10.75;75.23
43147;BME280;28752;48.266;7.402;2024-03-07T00:29:39;99913.31;;;10.80;74.32
43147;BME280;28752;48.266;7.402;2024-03-07T00:32:04;99906.78;;;10.94;74.06
43147;BME280;28752;48.266;7.402;2024-03-07T00:34:33;99904.84;;;10.87;74.19
43147;BME280;28752;48.266;7.402;2024-03-07T00:36:58;99905.09;;;10.74;74.00
43147;BME280;28752;48.266;7.402;2024-03-07T00:39:24;99904.97;;;10.85;73.47
43147;BME280;28752;48.266;7.402;2024-03-07T00:41:49;99906.03;;;10.63;73.95
43147;BME280;28752;48.266;7.402;2024-03-07T00:44:15;99896.06;;;10.86;73.83
43147;BME280;28752;48.266;7.402;2024-03-07T00:46:41;99898.94;;;10.73;73.57
43147;BME280;28752;48.266;7.402;2024-03-07T00:49:06;99900.28;;;10.27;74.93
43147;BME280;28752;48.266;7.402;2024-03-07T00:51:32;99904.84;;;10.46;74.44
43147;BME280;28752;48.266;7.402;2024-03-07T00:53:57;99888.34;;;10.32;75.74
43147;BME280;28752;48.266;7.402;2024-03-07T00:56:23;99894.66;;;10.41;75.21
43147;BME280;28752;48.266;7.402;2024-03-07T00:58:48;99894.34;;;10.35;75.30
43147;BME280;28752;48.266;7.402;2024-03-07T01:01:14;99884.88;;;10.11;76.29
43147;BME280;28752;48.266;7.402;2024-03-07T01:03:40;99880.84;;;10.38;76.25
43147;BME280;28752;48.266;7.402;2024-03-07T01:06:05;99887.84;;;10.39;75.79
43147;BME280;28752;48.266;7.402;2024-03-07T01:08:31;99882.81;;;9.63;78.54
43147;BME280;28752;48.266;7.402;2024-03-07T01:11:00;99886.06;;;9.97;78.01
43147;BME280;28752;48.266;7.402;2024-03-07T01:13:25;99884.06;;;9.89;77.49
43147;BME280;28752;48.266;7.402;2024-03-07T01:15:50;99880.25;;;10.03;77.66
43147;BME280;28752;48.266;7.402;2024-03-07T01:18:16;99870.44;;;9.94;77.61
43147;BME280;28752;48.266;7.402;2024-03-07T01:20:42;99868.53;;;9.96;77.72
43147;BME280;28752;48.266;7.402;2024-03-07T01:23:07;99863.84;;;10.09;77.55
43147;BME280;28752;48.266;7.402;2024-03-07T01:25:35;99870.47;;;10.25;77.15
43147;BME280;28752;48.266;7.402;2024-03-07T01:28:01;99863.13;;;9.76;78.50
43147;BME280;28752;48.266;7.402;2024-03-07T01:30:26;99860.47;;;9.76;78.72
43147;BME280;28752;48.266;7.402;2024-03-07T01:32:53;99860.09;;;9.81;78.60
43147;BME280;28752;48.266;7.402;2024-03-07T01:35:18;99857.84;;;9.76;78.52
43147;BME280;28752;48.266;7.402;2024-03-07T01:37:44;99844.13;;;9.92;78.29
43147;BME280;28752;48.266;7.402;2024-03-07T01:40:09;99840.28;;;10.06;77.81
43147;BME280;28752;48.266;7.402;2024-03-07T01:42:34;99848.97;;;10.08;77.30
43147;BME280;28752;48.266;7.402;2024-03-07T01:45:00;99843.03;;;9.95;78.35
43147;BME280;28752;48.266;7.402;2024-03-07T01:47:25;99839.91;;;10.11;77.97
43147;BME280;28752;48.266;7.402;2024-03-07T01:49:51;99836.28;;;9.81;78.17
43147;BME280;28752;48.266;7.402;2024-03-07T01:52:16;99834.84;;;9.98;78.50
43147;BME280;28752;48.266;7.402;2024-03-07T01:54:42;99830.56;;;10.07;78.26
43147;BME280;28752;48.266;7.402;2024-03-07T01:57:10;99844.34;;;10.10;77.84
43147;BME280;28752;48.266;7.402;2024-03-07T01:59:43;99834.78;;;10.19;78.05
43147;BME280;28752;48.266;7.402;2024-03-07T02:04:55;99828.59;;;9.99;78.50
43147;BME280;28752;48.266;7.402;2024-03-07T02:10:24;99818.97;;;9.98;78.68
43147;BME280;28752;48.266;7.402;2024-03-07T02:12:50;99819.94;;;9.97;79.26
43147;BME280;28752;48.266;7.402;2024-03-07T02:15:15;99818.75;;;9.80;79.80
43147;BME280;28752;48.266;7.402;2024-03-07T02:17:40;99817.44;;;9.74;80.11
43147;BME280;28752;48.266;7.402;2024-03-07T02:20:06;99811.63;;;9.81;80.73
43147;BME280;28752;48.266;7.402;2024-03-07T02:22:37;99813.28;;;10.03;80.36
43147;BME280;28752;48.266;7.402;2024-03-07T02:25:02;99804.31;;;9.94;80.38
43147;BME280;28752;48.266;7.402;2024-03-07T02:27:27;99810.63;;;9.72;80.55
43147;BME280;28752;48.266;7.402;2024-03-07T02:29:53;99802.66;;;9.93;80.48
43147;BME280;28752;48.266;7.402;2024-03-07T02:32:18;99806.16;;;9.72;80.93
43147;BME280;28752;48.266;7.402;2024-03-07T02:34:44;99807.38;;;9.89;80.18
43147;BME280;28752;48.266;7.402;2024-03-07T02:37:09;99805.47;;;10.01;80.04
43147;BME280;28752;48.266;7.402;2024-03-07T02:39:35;99804.91;;;9.98;79.96
43147;BME280;28752;48.266;7.402;2024-03-07T02:42:01;99802.84;;;9.70;80.75
43147;BME280;28752;48.266;7.402;2024-03-07T02:44:26;99799.66;;;9.76;80.67
43147;BME280;28752;48.266;7.402;2024-03-07T02:46:51;99802.28;;;9.98;79.82
43147;BME280;28752;48.266;7.402;2024-03-07T02:49:16;99795.75;;;9.50;81.74
43147;BME280;28752;48.266;7.402;2024-03-07T02:51:41;99792.78;;;9.64;81.44
43147;BME280;28752;48.266;7.402;2024-03-07T02:54:07;99794.03;;;9.70;81.15
43147;BME280;28752;48.266;7.402;2024-03-07T02:56:32;99788.22;;;9.76;80.90
43147;BME280;28752;48.266;7.402;2024-03-07T02:58:58;99787.78;;;9.71;80.65
43147;BME280;28752;48.266;7.402;2024-03-07T03:01:23;99783.34;;;9.71;81.02
43147;BME280;28752;48.266;7.402;2024-03-07T03:03:48;99780.44;;;9.53;81.15
43147;BME280;28752;48.266;7.402;2024-03-07T03:06:13;99781.34;;;9.64;80.96
43147;BME280;28752;48.266;7.402;2024-03-07T03:08:38;99782.78;;;9.47;81.64
43147;BME280;28752;48.266;7.402;2024-03-07T03:11:04;99782.34;;;9.41;82.13
43147;BME280;28752;48.266;7.402;2024-03-07T03:13:29;99784.38;;;9.59;81.85
43147;BME280;28752;48.266;7.402;2024-03-07T03:15:55;99782.09;;;9.23;82.38
43147;BME280;28752;48.266;7.402;2024-03-07T03:18:23;99788.41;;;9.32;82.32
43147;BME280;28752;48.266;7.402;2024-03-07T03:20:49;99778.94;;;9.51;81.50
43147;BME280;28752;48.266;7.402;2024-03-07T03:23:14;99789.66;;;9.59;81.10
43147;BME280;28752;48.266;7.402;2024-03-07T03:25:39;99789.88;;;9.25;82.53
43147;BME280;28752;48.266;7.402;2024-03-07T03:28:05;99796.78;;;9.37;82.20
43147;BME280;28752;48.266;7.402;2024-03-07T03:30:31;99781.72;;;9.28;82.20
43147;BME280;28752;48.266;7.402;2024-03-07T03:32:57;99781.63;;;9.18;82.45
43147;BME280;28752;48.266;7.402;2024-03-07T03:35:23;99778.72;;;9.42;81.60
43147;BME280;28752;48.266;7.402;2024-03-07T03:37:48;99777.72;;;9.13;82.23
43147;BME280;28752;48.266;7.402;2024-03-07T03:40:15;99778.41;;;9.15;82.43
43147;BME280;28752;48.266;7.402;2024-03-07T03:42:41;99778.69;;;9.33;81.73
43147;BME280;28752;48.266;7.402;2024-03-07T03:45:07;99781.75;;;9.17;81.87
43147;BME280;28752;48.266;7.402;2024-03-07T03:47:37;99779.09;;;9.17;81.90
43147;BME280;28752;48.266;7.402;2024-03-07T03:50:06;99779.72;;;9.20;82.06
43147;BME280;28752;48.266;7.402;2024-03-07T03:52:35;99781.72;;;9.28;81.74
43147;BME280;28752;48.266;7.402;2024-03-07T03:55:00;99781.19;;;9.34;80.53
43147;BME280;28752;48.266;7.402;2024-03-07T03:57:26;99778.03;;;9.19;81.09
43147;BME280;28752;48.266;7.402;2024-03-07T03:59:51;99782.63;;;9.38;80.58
43147;BME280;28752;48.266;7.402;2024-03-07T04:02:17;99781.88;;;9.36;80.75
43147;BME280;28752;48.266;7.402;2024-03-07T04:04:42;99780.34;;;9.34;80.88
43147;BME280;28752;48.266;7.402;2024-03-07T04:07:07;99780.28;;;9.45;80.29
43147;BME280;28752;48.266;7.402;2024-03-07T04:09:33;99773.81;;;9.17;80.86
43147;BME280;28752;48.266;7.402;2024-03-07T04:11:58;99773.69;;;9.18;80.50
43147;BME280;28752;48.266;7.402;2024-03-07T04:14:24;99775.34;;;9.31;80.55
43147;BME280;28752;48.266;7.402;2024-03-07T04:16:49;99772.56;;;9.32;79.87
43147;BME280;28752;48.266;7.402;2024-03-07T04:19:15;99771.25;;;9.27;79.72
43147;BME280;28752;48.266;7.402;2024-03-07T04:21:40;99762.00;;;9.32;79.71
43147;BME280;28752;48.266;7.402;2024-03-07T04:24:07;99761.88;;;9.34;79.47
43147;BME280;28752;48.266;7.402;2024-03-07T04:26:32;99764.44;;;9.24;79.25
43147;BME280;28752;48.266;7.402;2024-03-07T04:28:57;99757.34;;;9.03;79.91
43147;BME280;28752;48.266;7.402;2024-03-07T04:31:23;99754.94;;;9.21;79.37
43147;BME280;28752;48.266;7.402;2024-03-07T04:33:48;99754.63;;;9.15;79.29
43147;BME280;28752;48.266;7.402;2024-03-07T04:36:13;99748.06;;;9.30;78.50
43147;BME280;28752;48.266;7.402;2024-03-07T04:38:38;99753.53;;;9.17;78.73
43147;BME280;28752;48.266;7.402;2024-03-07T04:41:06;99746.88;;;9.23;78.70
43147;BME280;28752;48.266;7.402;2024-03-07T04:43:32;99751.59;;;9.19;78.23
43147;BME280;28752;48.266;7.402;2024-03-07T04:45:58;99747.66;;;9.14;78.39
43147;BME280;28752;48.266;7.402;2024-03-07T04:48:23;99744.88;;;8.94;79.03
43147;BME280;28752;48.266;7.402;2024-03-07T04:50:49;99740.66;;;9.24;78.39
43147;BME280;28752;48.266;7.402;2024-03-07T04:53:14;99755.53;;;9.04;78.30
43147;BME280;28752;48.266;7.402;2024-03-07T04:55:39;99748.78;;;9.11;78.58
43147;BME280;28752;48.266;7.402;2024-03-07T04:58:04;99745.03;;;9.14;78.48
43147;BME280;28752;48.266;7.402;2024-03-07T05:00:30;99751.28;;;9.34;77.79
43147;BME280;28752;48.266;7.402;2024-03-07T05:02:55;99751.34;;;9.01;78.60
43147;BME280;28752;48.266;7.402;2024-03-07T05:05:21;99744.16;;;9.03;78.47
43147;BME280;28752;48.266;7.402;2024-03-07T05:07:48;99741.88;;;8.78;79.35
43147;BME280;28752;48.266;7.402;2024-03-07T05:10:14;99746.06;;;9.01;78.46
43147;BME280;28752;48.266;7.402;2024-03-07T05:12:40;99741.34;;;8.84;78.54
43147;BME280;28752;48.266;7.402;2024-03-07T05:15:05;99744.69;;;8.86;78.27
43147;BME280;28752;48.266;7.402;2024-03-07T05:17:31;99745.06;;;8.81;78.61
43147;BME280;28752;48.266;7.402;2024-03-07T05:19:59;99736.59;;;8.78;78.23
43147;BME280;28752;48.266;7.402;2024-03-07T05:22:24;99737.16;;;8.81;78.32
43147;BME280;28752;48.266;7.402;2024-03-07T05:24:51;99739.34;;;8.76;78.46
43147;BME280;28752;48.266;7.402;2024-03-07T05:27:26;99736.09;;;8.73;78.13
43147;BME280;28752;48.266;7.402;2024-03-07T05:29:55;99736.75;;;8.65;78.62
43147;BME280;28752;48.266;7.402;2024-03-07T05:32:24;99737.00;;;8.62;78.20
43147;BME280;28752;48.266;7.402;2024-03-07T05:34:51;99737.41;;;8.46;78.86
43147;BME280;28752;48.266;7.402;2024-03-07T05:37:19;99736.91;;;8.52;78.72
43147;BME280;28752;48.266;7.402;2024-03-07T05:40:02;99727.81;;;8.45;78.83
43147;BME280;28752;48.266;7.402;2024-03-07T05:42:29;99740.13;;;8.56;78.29
43147;BME280;28752;48.266;7.402;2024-03-07T05:44:54;99734.44;;;8.28;78.70
43147;BME280;28752;48.266;7.402;2024-03-07T05:47:20;99740.41;;;8.41;78.19
43147;BME280;28752;48.266;7.402;2024-03-07T05:49:45;99744.59;;;8.44;78.24
43147;BME280;28752;48.266;7.402;2024-03-07T05:52:10;99741.09;;;8.54;77.15
43147;BME280;28752;48.266;7.402;2024-03-07T05:54:36;99750.34;;;8.38;77.20
43147;BME280;28752;48.266;7.402;2024-03-07T05:57:01;99752.16;;;8.26;77.93
43147;BME280;28752;48.266;7.402;2024-03-07T05:59:26;99746.22;;;7.78;79.02
43147;BME280;28752;48.266;7.402;2024-03-07T06:01:55;99742.75;;;8.00;78.33
43147;BME280;28752;48.266;7.402;2024-03-07T06:04:21;99741.66;;;8.03;77.91
43147;BME280;28752;48.266;7.402;2024-03-07T06:06:46;99750.66;;;8.00;77.96
43147;BME280;28752;48.266;7.402;2024-03-07T06:09:12;99743.47;;;7.91;78.31
43147;BME280;28752;48.266;7.402;2024-03-07T06:11:39;99738.69;;;7.85;78.41
43147;BME280;28752;48.266;7.402;2024-03-07T06:14:07;99740.59;;;7.94;78.07
43147;BME280;28752;48.266;7.402;2024-03-07T06:16:33;99735.22;;;7.96;77.66
43147;BME280;28752;48.266;7.402;2024-03-07T06:19:00;99737.56;;;8.10;76.83
43147;BME280;28752;48.266;7.402;2024-03-07T06:21:26;99742.53;;;7.81;77.58
43147;BME280;28752;48.266;7.402;2024-03-07T06:23:51;99744.53;;;8.00;76.78
43147;BME280;28752;48.266;7.402;2024-03-07T06:26:24;99743.25;;;7.94;76.32
43147;BME280;28752;48.266;7.402;2024-03-07T06:29:02;99748.03;;;7.89;76.59
43147;BME280;28752;48.266;7.402;2024-03-07T06:31:27;99747.16;;;8.11;75.70
43147;BME280;28752;48.266;7.402;2024-03-07T06:33:52;99747.16;;;8.11;75.18
43147;BME280;28752;48.266;7.402;2024-03-07T06:36:18;99752.44;;;8.00;74.99
43147;BME280;28752;48.266;7.402;2024-03-07T06:38:43;99755.56;;;8.05;75.36
43147;BME280;28752;48.266;7.402;2024-03-07T06:41:08;99752.41;;;8.34;74.59
43147;BME280;28752;48.266;7.402;2024-03-07T06:43:35;99758.06;;;8.29;74.14
43147;BME280;28752;48.266;7.402;2024-03-07T06:46:00;99739.75;;;8.05;74.66
43147;BME280;28752;48.266;7.402;2024-03-07T06:48:26;99754.66;;;8.39;74.40
43147;BME280;28752;48.266;7.402;2024-03-07T06:50:51;99760.31;;;8.23;74.15
43147;BME280;28752;48.266;7.402;2024-03-07T06:53:17;99757.63;;;7.90;75.15
43147;BME280;28752;48.266;7.402;2024-03-07T06:55:42;99761.44;;;8.09;74.83
43147;BME280;28752;48.266;7.402;2024-03-07T06:58:08;99762.28;;;8.09;73.99
43147;BME280;28752;48.266;7.402;2024-03-07T07:00:33;99758.69;;;7.99;73.86
43147;BME280;28752;48.266;7.402;2024-03-07T07:03:02;99770.78;;;8.01;74.66
43147;BME280;28752;48.266;7.402;2024-03-07T07:05:29;99765.97;;;8.18;73.77
43147;BME280;28752;48.266;7.402;2024-03-07T07:07:55;99760.00;;;8.16;73.66
43147;BME280;28752;48.266;7.402;2024-03-07T07:10:20;99753.97;;;8.25;73.46
43147;BME280;28752;48.266;7.402;2024-03-07T07:12:48;99757.16;;;8.63;72.91
43147;BME280;28752;48.266;7.402;2024-03-07T07:15:16;99750.50;;;8.47;72.09
43147;BME280;28752;48.266;7.402;2024-03-07T07:17:43;99754.97;;;8.68;71.58
43147;BME280;28752;48.266;7.402;2024-03-07T07:20:10;99752.75;;;8.84;71.01
43147;BME280;28752;48.266;7.402;2024-03-07T07:22:38;99757.00;;;8.97;70.04
43147;BME280;28752;48.266;7.402;2024-03-07T07:25:04;99759.50;;;8.98;70.33
43147;BME280;28752;48.266;7.402;2024-03-07T07:27:39;99762.06;;;8.67;70.45
43147;BME280;28752;48.266;7.402;2024-03-07T07:30:05;99761.50;;;8.41;70.14
43147;BME280;28752;48.266;7.402;2024-03-07T07:32:31;99759.22;;;8.80;69.34
43147;BME280;28752;48.266;7.402;2024-03-07T07:34:57;99759.22;;;9.34;68.20
43147;BME280;28752;48.266;7.402;2024-03-07T07:37:22;99753.53;;;8.96;67.96
43147;BME280;28752;48.266;7.402;2024-03-07T07:39:48;99754.63;;;9.15;67.22
43147;BME280;28752;48.266;7.402;2024-03-07T07:42:13;99757.13;;;8.95;67.49
43147;BME280;28752;48.266;7.402;2024-03-07T07:44:39;99757.00;;;8.97;66.78
43147;BME280;28752;48.266;7.402;2024-03-07T07:47:05;99746.03;;;8.80;67.64
43147;BME280;28752;48.266;7.402;2024-03-07T07:49:30;99748.94;;;9.40;66.52
43147;BME280;28752;48.266;7.402;2024-03-07T07:51:56;99751.63;;;9.50;66.23
43147;BME280;28752;48.266;7.402;2024-03-07T07:54:21;99742.34;;;9.56;65.68
43147;BME280;28752;48.266;7.402;2024-03-07T07:56:46;99748.25;;;9.17;65.99
43147;BME280;28752;48.266;7.402;2024-03-07T07:59:12;99754.19;;;9.10;66.55
43147;BME280;28752;48.266;7.402;2024-03-07T08:01:38;99747.28;;;9.39;65.21
43147;BME280;28752;48.266;7.402;2024-03-07T08:04:04;99740.38;;;9.48;65.58
43147;BME280;28752;48.266;7.402;2024-03-07T08:06:29;99737.00;;;9.67;65.11
43147;BME280;28752;48.266;7.402;2024-03-07T08:08:58;99739.53;;;9.48;64.30
43147;BME280;28752;48.266;7.402;2024-03-07T08:11:23;99738.09;;;9.34;62.96
43147;BME280;28752;48.266;7.402;2024-03-07T08:13:49;99740.13;;;8.88;64.48
43147;BME280;28752;48.266;7.402;2024-03-07T08:16:15;99729.75;;;9.38;63.87
43147;BME280;28752;48.266;7.402;2024-03-07T08:18:41;99734.41;;;9.56;63.41
43147;BME280;28752;48.266;7.402;2024-03-07T08:21:07;99725.84;;;9.12;63.17
43147;BME280;28752;48.266;7.402;2024-03-07T08:23:35;99725.69;;;9.65;63.19
43147;BME280;28752;48.266;7.402;2024-03-07T08:26:00;99717.94;;;9.73;62.47
43147;BME280;28752;48.266;7.402;2024-03-07T08:28:26;99726.50;;;9.56;62.87
43147;BME280;28752;48.266;7.402;2024-03-07T08:30:51;99719.88;;;9.40;63.18
43147;BME280;28752;48.266;7.402;2024-03-07T08:33:17;99711.28;;;9.48;62.98
43147;BME280;28752;48.266;7.402;2024-03-07T08:35:46;99710.16;;;9.72;62.70
43147;BME280;28752;48.266;7.402;2024-03-07T08:38:11;99714.91;;;9.47;62.36
43147;BME280;28752;48.266;7.402;2024-03-07T08:40:37;99711.47;;;9.97;62.03
43147;BME280;28752;48.266;7.402;2024-03-07T08:43:02;99712.31;;;9.57;62.41
43147;BME280;28752;48.266;7.402;2024-03-07T08:45:28;99704.66;;;9.54;62.37
43147;BME280;28752;48.266;7.402;2024-03-07T08:47:54;99704.84;;;9.41;62.97
43147;BME280;28752;48.266;7.402;2024-03-07T08:50:20;99700.63;;;9.59;61.58
43147;BME280;28752;48.266;7.402;2024-03-07T08:52:45;99699.53;;;10.03;61.39
43147;BME280;28752;48.266;7.402;2024-03-07T08:55:13;99701.34;;;10.02;61.16
43147;BME280;28752;48.266;7.402;2024-03-07T08:57:39;99699.25;;;9.96;61.17
43147;BME280;28752;48.266;7.402;2024-03-07T09:00:05;99702.16;;;10.03;61.53
43147;BME280;28752;48.266;7.402;2024-03-07T09:02:35;99691.03;;;9.99;61.08
43147;BME280;28752;48.266;7.402;2024-03-07T09:05:01;99697.41;;;9.96;61.06
43147;BME280;28752;48.266;7.402;2024-03-07T09:07:27;99699.09;;;10.07;60.74
43147;BME280;28752;48.266;7.402;2024-03-07T09:09:54;99687.31;;;9.71;61.15
43147;BME280;28752;48.266;7.402;2024-03-07T09:12:19;99688.88;;;10.43;60.32
43147;BME280;28752;48.266;7.402;2024-03-07T09:14:45;99700.00;;;10.96;59.97
43147;BME280;28752;48.266;7.402;2024-03-07T09:17:10;99702.94;;;11.02;58.87
43147;BME280;28752;48.266;7.402;2024-03-07T09:19:35;99699.19;;;10.86;59.02
43147;BME280;28752;48.266;7.402;2024-03-07T09:22:01;99698.34;;;10.36;59.48
43147;BME280;28752;48.266;7.402;2024-03-07T09:24:28;99693.47;;;10.41;59.23
43147;BME280;28752;48.266;7.402;2024-03-07T09:26:53;99683.31;;;10.56;59.74
43147;BME280;28752;48.266;7.402;2024-03-07T09:29:24;99684.09;;;10.27;60.56
43147;BME280;28752;48.266;7.402;2024-03-07T09:31:52;99692.50;;;10.42;60.94
43147;BME280;28752;48.266;7.402;2024-03-07T09:34:22;99686.84;;;10.06;60.51
43147;BME280;28752;48.266;7.402;2024-03-07T09:36:49;99685.75;;;10.19;60.03
43147;BME280;28752;48.266;7.402;2024-03-07T09:39:18;99676.13;;;9.98;60.51
43147;BME280;28752;48.266;7.402;2024-03-07T09:41:45;99687.88;;;10.25;59.23
43147;BME280;28752;48.266;7.402;2024-03-07T09:44:14;99681.56;;;10.06;59.55
43147;BME280;28752;48.266;7.402;2024-03-07T09:46:42;99686.78;;;9.77;60.34
43147;BME280;28752;48.266;7.402;2024-03-07T09:49:10;99682.56;;;9.65;60.36
43147;BME280;28752;48.266;7.402;2024-03-07T09:51:37;99682.97;;;10.10;60.30
43147;BME280;28752;48.266;7.402;2024-03-07T09:54:03;99681.38;;;10.39;59.99
43147;BME280;28752;48.266;7.402;2024-03-07T09:56:28;99681.28;;;10.00;60.22
43147;BME280;28752;48.266;7.402;2024-03-07T09:58:57;99681.13;;;10.01;60.20
43147;BME280;28752;48.266;7.402;2024-03-07T10:01:24;99677.94;;;10.07;59.82
43147;BME280;28752;48.266;7.402;2024-03-07T10:03:50;99672.28;;;10.41;60.88
43147;BME280;28752;48.266;7.402;2024-03-07T10:06:18;99682.84;;;10.31;60.93
43147;BME280;28752;48.266;7.402;2024-03-07T10:08:46;99679.50;;;10.10;60.51
43147;BME280;28752;48.266;7.402;2024-03-07T10:11:12;99681.63;;;10.45;59.88
43147;BME280;28752;48.266;7.402;2024-03-07T10:13:39;99675.91;;;10.50;61.09
43147;BME280;28752;48.266;7.402;2024-03-07T10:16:04;99674.41;;;10.57;59.82
43147;BME280;28752;48.266;7.402;2024-03-07T10:18:30;99673.38;;;10.78;59.79
43147;BME280;28752;48.266;7.402;2024-03-07T10:20:56;99671.59;;;10.59;59.32
43147;BME280;28752;48.266;7.402;2024-03-07T10:23:22;99678.22;;;10.04;59.38
43147;BME280;28752;48.266;7.402;2024-03-07T10:25:47;99673.56;;;9.87;60.24
43147;BME280;28752;48.266;7.402;2024-03-07T10:28:13;99679.78;;;10.26;60.19
43147;BME280;28752;48.266;7.402;2024-03-07T10:30:42;99672.16;;;10.53;60.02
43147;BME280;28752;48.266;7.402;2024-03-07T10:33:09;99679.94;;;10.25;60.48
43147;BME280;28752;48.266;7.402;2024-03-07T10:35:37;99668.06;;;10.29;61.04
43147;BME280;28752;48.266;7.402;2024-03-07T10:38:03;99673.97;;;10.62;60.20
43147;BME280;28752;48.266;7.402;2024-03-07T10:40:32;99677.47;;;10.72;59.51
43147;BME280;28752;48.266;7.402;2024-03-07T10:42:57;99668.28;;;10.37;59.72
43147;BME280;28752;48.266;7.402;2024-03-07T10:45:23;99666.47;;;10.57;60.36
43147;BME280;28752;48.266;7.402;2024-03-07T10:47:55;99669.66;;;10.41;60.66
43147;BME280;28752;48.266;7.402;2024-03-07T10:50:43;99658.88;;;10.13;60.87
43147;BME280;28752;48.266;7.402;2024-03-07T11:00:56;99650.38;;;10.20;59.57
43147;BME280;28752;48.266;7.402;2024-03-07T11:03:23;99654.84;;;10.19;59.74
43147;BME280;28752;48.266;7.402;2024-03-07T11:05:49;99642.84;;;10.83;59.43
43147;BME280;28752;48.266;7.402;2024-03-07T11:08:15;99655.19;;;10.55;59.14
43147;BME280;28752;48.266;7.402;2024-03-07T11:10:41;99667.56;;;10.55;57.35
43147;BME280;28752;48.266;7.402;2024-03-07T11:13:07;99655.84;;;10.47;57.34
43147;BME280;28752;48.266;7.402;2024-03-07T11:15:35;99655.84;;;10.77;57.86
43147;BME280;28752;48.266;7.402;2024-03-07T11:18:03;99672.44;;;10.69;58.17
43147;BME280;28752;48.266;7.402;2024-03-07T11:20:35;99653.88;;;10.79;57.92
43147;BME280;28752;48.266;7.402;2024-03-07T11:23:23;99656.97;;;10.64;58.45
43147;BME280;28752;48.266;7.402;2024-03-07T11:25:47;99646.81;;;10.60;59.08
43147;BME280;28752;48.266;7.402;2024-03-07T11:28:13;99648.63;;;10.49;59.38
43147;BME280;28752;48.266;7.402;2024-03-07T11:30:40;99648.91;;;10.46;59.61
43147;BME280;28752;48.266;7.402;2024-03-07T11:33:07;99647.19;;;10.75;60.19
43147;BME280;28752;48.266;7.402;2024-03-07T11:35:33;99641.03;;;10.94;59.56
43147;BME280;28752;48.266;7.402;2024-03-07T11:38:01;99644.44;;;10.66;58.60
43147;BME280;28752;48.266;7.402;2024-03-07T11:42:54;99640.38;;;10.43;60.23
43147;BME280;28752;48.266;7.402;2024-03-07T11:45:25;99629.66;;;10.74;58.93
43147;BME280;28752;48.266;7.402;2024-03-07T11:47:51;99632.22;;;11.03;58.17
43147;BME280;28752;48.266;7.402;2024-03-07T11:50:32;99634.91;;;11.31;58.32
43147;BME280;28752;48.266;7.402;2024-03-07T11:53:00;99631.88;;;11.26;58.46
43147;BME280;28752;48.266;7.402;2024-03-07T11:55:26;99629.88;;;11.37;58.48
43147;BME280;28752;48.266;7.402;2024-03-07T11:57:53;99628.13;;;11.56;58.04
43147;BME280;28752;48.266;7.402;2024-03-07T12:00:19;99633.19;;;11.12;58.08
43147;BME280;28752;48.266;7.402;2024-03-07T12:02:55;99623.47;;;11.30;57.88
43147;BME280;28752;48.266;7.402;2024-03-07T12:05:24;99634.63;;;10.87;59.20
43147;BME280;28752;48.266;7.402;2024-03-07T12:07:55;99629.38;;;10.77;60.25
43147;BME280;28752;48.266;7.402;2024-03-07T12:10:24;99624.09;;;11.14;59.38
43147;BME280;28752;48.266;7.402;2024-03-07T12:12:53;99621.66;;;10.83;59.54
43147;BME280;28752;48.266;7.402;2024-03-07T12:15:23;99617.44;;;11.10;58.88
43147;BME280;28752;48.266;7.402;2024-03-07T12:17:49;99621.38;;;10.96;59.84
43147;BME280;28752;48.266;7.402;2024-03-07T12:20:15;99613.16;;;10.90;59.83
43147;BME280;28752;48.266;7.402;2024-03-07T12:23:02;99611.56;;;11.07;59.28
43147;BME280;28752;48.266;7.402;2024-03-07T12:25:28;99613.63;;;11.23;59.88
43147;BME280;28752;48.266;7.402;2024-03-07T12:28:04;99612.63;;;10.86;60.92
43147;BME280;28752;48.266;7.402;2024-03-07T12:30:36;99610.16;;;11.40;59.85
43147;BME280;28752;48.266;7.402;2024-03-07T12:33:03;99605.00;;;11.11;59.23
43147;BME280;28752;48.266;7.402;2024-03-07T12:35:35;99596.69;;;10.96;59.93
43147;BME280;28752;48.266;7.402;2024-03-07T12:38:00;99596.31;;;11.28;59.25
43147;BME280;28752;48.266;7.402;2024-03-07T12:40:28;99594.13;;;11.69;58.75
43147;BME280;28752;48.266;7.402;2024-03-07T12:42:58;99595.69;;;11.62;58.50
43147;BME280;28752;48.266;7.402;2024-03-07T12:45:24;99598.94;;;10.91;59.03
43147;BME280;28752;48.266;7.402;2024-03-07T12:47:52;99582.47;;;11.34;59.74
43147;BME280;28752;48.266;7.402;2024-03-07T12:50:19;99577.03;;;11.26;59.00
43147;BME280;28752;48.266;7.402;2024-03-07T12:52:48;99580.97;;;10.75;59.89
43147;BME280;28752;48.266;7.402;2024-03-07T12:55:17;99569.09;;;11.26;60.50
43147;BME280;28752;48.266;7.402;2024-03-07T12:57:49;99570.56;;;11.11;59.51
43147;BME280;28752;48.266;7.402;2024-03-07T13:00:15;99565.22;;;11.20;59.61
43147;BME280;28752;48.266;7.402;2024-03-07T13:02:47;99562.38;;;10.94;60.09
43147;BME280;28752;48.266;7.402;2024-03-07T13:05:16;99566.28;;;11.00;60.39
43147;BME280;28752;48.266;7.402;2024-03-07T13:07:46;99567.19;;;10.71;61.04
43147;BME280;28752;48.266;7.402;2024-03-07T13:10:12;99559.13;;;11.10;60.99
43147;BME280;28752;48.266;7.402;2024-03-07T13:12:40;99561.56;;;11.22;61.02
43147;BME280;28752;48.266;7.402;2024-03-07T13:15:07;99554.16;;;11.53;59.47
43147;BME280;28752;48.266;7.402;2024-03-07T13:17:35;99556.88;;;11.15;59.96
43147;BME280;28752;48.266;7.402;2024-03-07T13:20:00;99554.19;;;11.25;58.93